Time;durP1;ratioP1;P1;durP2;ratioP2;P2;SDS_P1;SDS_P2;PMS_P1;PMS_P2;Temp;Humidity;BMP_temperature;BMP_pressure;BME280_temperature;BME280_humidity;BME280_pressure;Samples;Min_cycle;Max_cycle;Signal;HPM_P1;HPM_P2
2021/07/17 00:01:35;;;;;;;34.10;9.82;;;;;;;;;;5035862;28;20033;-71
2021/07/17 00:04:02;;;;;;;34.72;10.88;;;;;;;;;;5031447;28;20052;-71
2021/07/17 00:06:29;;;;;;;30.83;10.85;;;;;;;;;;5039842;28;20033;-71
2021/07/17 00:08:56;;;;;;;29.45;9.20;;;;;;;;;;5033326;28;20101;-71
2021/07/17 00:11:22;;;;;;;30.75;9.65;;;;;;;;;;5020398;28;20140;-71
2021/07/17 00:13:48;;;;;;;30.58;10.18;;;;;;;;;;5028560;28;20413;-71
2021/07/17 00:16:15;;;;;;;37.80;10.65;;;;;;;;;;5039950;28;20480;-71
2021/07/17 00:18:42;;;;;;;36.33;10.98;;;;;;;;;;5029299;28;20493;-71
2021/07/17 00:21:08;;;;;;;32.60;10.27;;;;;;;;;;5036053;28;20037;-71
2021/07/17 00:23:34;;;;;;;30.70;10.95;;;;;;;;;;5026747;28;20041;-71
2021/07/17 00:26:00;;;;;;;31.15;9.95;;;;;;;;;;5021978;28;20049;-71
2021/07/17 00:28:28;;;;;;;29.75;10.27;;;;;;;;;;5017329;28;20056;-71
2021/07/17 00:30:54;;;;;;;31.27;11.38;;;;;;;;;;5031656;28;20046;-71
2021/07/17 00:33:20;;;;;;;34.20;11.32;;;;;;;;;;5038469;28;20093;-71
2021/07/17 00:35:46;;;;;;;30.77;10.20;;;;;;;;;;5038654;28;20469;-71
2021/07/17 00:38:13;;;;;;;38.63;10.95;;;;;;;;;;5034836;28;20037;-71
2021/07/17 00:40:39;;;;;;;39.75;11.57;;;;;;;;;;5032940;28;20040;-71
2021/07/17 00:43:05;;;;;;;35.50;9.95;;;;;;;;;;5037388;28;20051;-71
2021/07/17 00:45:31;;;;;;;31.50;11.70;;;;;;;;;;5028892;28;20037;-71
2021/07/17 00:47:57;;;;;;;27.30;9.95;;;;;;;;;;5016044;28;20123;-71
2021/07/17 00:50:26;;;;;;;28.05;10.20;;;;;;;;;;5033750;28;20037;-71
2021/07/17 00:52:52;;;;;;;34.22;11.88;;;;;;;;;;5035951;28;20095;-71
2021/07/17 00:55:19;;;;;;;34.10;10.82;;;;;;;;;;5017865;28;20507;-71
2021/07/17 00:57:47;;;;;;;32.50;10.85;;;;;;;;;;5036201;28;20486;-70
2021/07/17 01:00:15;;;;;;;33.67;10.77;;;;;;;;;;5027124;28;20348;-70
2021/07/17 01:02:47;;;;;;;28.33;10.40;;;;;;;;;;5036493;28;20496;-70
2021/07/17 01:05:14;;;;;;;32.58;11.45;;;;;;;;;;5032043;28;20136;-70
2021/07/17 01:07:40;;;;;;;32.63;10.27;;;;;;;;;;5033984;28;20409;-71
2021/07/17 01:10:08;;;;;;;30.73;9.82;;;;;;;;;;5032434;28;20102;-71
2021/07/17 01:12:34;;;;;;;33.95;11.70;;;;;;;;;;5020665;28;20049;-71
2021/07/17 01:15:00;;;;;;;34.72;10.38;;;;;;;;;;5034680;28;20400;-71
2021/07/17 01:17:26;;;;;;;34.50;10.80;;;;;;;;;;5034876;28;20059;-71
2021/07/17 01:19:53;;;;;;;32.67;10.13;;;;;;;;;;5024220;28;20045;-71
2021/07/17 01:22:19;;;;;;;33.45;10.45;;;;;;;;;;5026171;28;20188;-71
2021/07/17 01:24:46;;;;;;;31.00;9.70;;;;;;;;;;5039166;28;20048;-71
2021/07/17 01:27:17;;;;;;;34.08;10.95;;;;;;;;;;5027547;28;20394;-71
2021/07/17 01:29:43;;;;;;;36.10;11.18;;;;;;;;;;5038340;28;20037;-71
2021/07/17 01:32:09;;;;;;;31.50;11.20;;;;;;;;;;5027640;28;20060;-71
2021/07/17 01:34:36;;;;;;;30.20;10.13;;;;;;;;;;5042559;28;20060;-71
2021/07/17 01:37:02;;;;;;;23.35;9.73;;;;;;;;;;5024069;28;20041;-71
2021/07/17 01:39:29;;;;;;;34.05;10.57;;;;;;;;;;5035718;28;20504;-71
2021/07/17 01:41:55;;;;;;;30.65;10.02;;;;;;;;;;5033430;28;20575;-71
2021/07/17 01:44:21;;;;;;;33.78;10.02;;;;;;;;;;5034018;28;20041;-71
2021/07/17 01:46:47;;;;;;;26.63;9.30;;;;;;;;;;5027621;28;20045;-70
2021/07/17 01:49:14;;;;;;;25.88;9.27;;;;;;;;;;5033436;28;20128;-70
2021/07/17 01:51:40;;;;;;;33.15;10.18;;;;;;;;;;5030286;28;20544;-71
2021/07/17 01:54:06;;;;;;;33.28;10.55;;;;;;;;;;5031228;28;20048;-71
2021/07/17 01:56:33;;;;;;;40.50;10.52;;;;;;;;;;5036648;28;20129;-70
2021/07/17 01:58:59;;;;;;;32.38;9.80;;;;;;;;;;5030888;28;20037;-70
2021/07/17 02:01:26;;;;;;;34.20;10.70;;;;;;;;;;5035320;28;20043;-70
2021/07/17 02:03:53;;;;;;;28.63;10.18;;;;;;;;;;5030607;28;20077;-70
2021/07/17 02:06:23;;;;;;;29.73;9.85;;;;;;;;;;5036154;28;20416;-70
2021/07/17 02:08:49;;;;;;;33.72;10.45;;;;;;;;;;5026427;28;20053;-70
2021/07/17 02:11:16;;;;;;;29.77;10.15;;;;;;;;;;5033626;28;20116;-70
2021/07/17 02:13:42;;;;;;;31.67;9.95;;;;;;;;;;5026878;28;20079;-70
2021/07/17 02:16:08;;;;;;;36.63;10.38;;;;;;;;;;5032901;28;20048;-71
2021/07/17 02:18:34;;;;;;;31.77;9.02;;;;;;;;;;5026446;28;20485;-71
2021/07/17 02:21:01;;;;;;;30.80;10.07;;;;;;;;;;5031051;28;20368;-71
2021/07/17 02:23:28;;;;;;;28.08;9.75;;;;;;;;;;5025725;28;20546;-70
2021/07/17 02:25:54;;;;;;;26.42;9.18;;;;;;;;;;5014488;28;20098;-70
2021/07/17 02:28:20;;;;;;;31.63;9.50;;;;;;;;;;5030156;28;20033;-70
2021/07/17 02:30:48;;;;;;;22.23;8.45;;;;;;;;;;5033588;28;20152;-70
2021/07/17 02:33:14;;;;;;;35.00;10.13;;;;;;;;;;5012949;28;20486;-70
2021/07/17 02:35:40;;;;;;;39.80;11.50;;;;;;;;;;5021363;28;20559;-70
2021/07/17 02:38:07;;;;;;;31.83;9.57;;;;;;;;;;5034578;28;20041;-70
2021/07/17 02:40:33;;;;;;;34.55;11.07;;;;;;;;;;5026081;28;20079;-70
2021/07/17 02:42:59;;;;;;;31.92;9.68;;;;;;;;;;5030836;28;20033;-70
2021/07/17 02:45:25;;;;;;;32.17;10.02;;;;;;;;;;5031467;28;20068;-71
2021/07/17 02:47:51;;;;;;;29.25;9.40;;;;;;;;;;5032205;28;20033;-71
2021/07/17 02:50:17;;;;;;;35.25;10.52;;;;;;;;;;5028955;28;20037;-71
2021/07/17 02:52:44;;;;;;;32.25;10.15;;;;;;;;;;5031367;28;20406;-70
2021/07/17 02:55:10;;;;;;;31.42;10.50;;;;;;;;;;5028036;28;20063;-70
2021/07/17 02:57:37;;;;;;;33.88;10.13;;;;;;;;;;5033142;28;20055;-70
2021/07/17 03:00:05;;;;;;;31.27;9.65;;;;;;;;;;5028939;28;20108;-71
2021/07/17 03:02:31;;;;;;;24.80;9.60;;;;;;;;;;5034544;28;20078;-70
2021/07/17 03:04:58;;;;;;;31.05;9.27;;;;;;;;;;5026075;28;20440;-71
2021/07/17 03:07:24;;;;;;;30.83;9.43;;;;;;;;;;5037852;28;20049;-71
2021/07/17 03:09:53;;;;;;;31.70;10.57;;;;;;;;;;5030331;28;20033;-70
2021/07/17 03:12:19;;;;;;;35.83;10.02;;;;;;;;;;5015502;28;20616;-70
2021/07/17 03:14:45;;;;;;;30.73;9.20;;;;;;;;;;5039650;28;20033;-70
2021/07/17 03:17:12;;;;;;;25.20;9.93;;;;;;;;;;5038839;28;20037;-70
2021/07/17 03:19:39;;;;;;;31.50;9.27;;;;;;;;;;5036046;28;20383;-70
2021/07/17 03:22:07;;;;;;;28.73;9.77;;;;;;;;;;5030791;28;20464;-70
2021/07/17 03:24:33;;;;;;;32.10;10.05;;;;;;;;;;5037719;28;20531;-70
2021/07/17 03:27:05;;;;;;;32.65;9.73;;;;;;;;;;5033766;28;20041;-70
2021/07/17 03:29:31;;;;;;;32.25;10.40;;;;;;;;;;5041563;28;20116;-70
2021/07/17 03:31:57;;;;;;;30.02;10.68;;;;;;;;;;5030475;28;20045;-70
2021/07/17 03:34:24;;;;;;;25.58;8.52;;;;;;;;;;5036739;28;20144;-70
2021/07/17 03:36:50;;;;;;;22.17;9.18;;;;;;;;;;5030755;28;20063;-70
2021/07/17 03:39:16;;;;;;;21.42;8.82;;;;;;;;;;5038130;28;20102;-70
2021/07/17 03:41:44;;;;;;;28.40;9.45;;;;;;;;;;5028788;28;20045;-70
2021/07/17 03:44:11;;;;;;;30.45;9.07;;;;;;;;;;5020643;28;20057;-70
2021/07/17 03:46:37;;;;;;;23.33;9.15;;;;;;;;;;5022637;28;20041;-70
2021/07/17 03:49:03;;;;;;;32.38;8.85;;;;;;;;;;5027419;28;20156;-70
2021/07/17 03:51:30;;;;;;;30.27;8.82;;;;;;;;;;5015765;28;20095;-71
2021/07/17 03:53:59;;;;;;;30.05;8.68;;;;;;;;;;5040385;28;20090;-70
2021/07/17 03:56:25;;;;;;;24.98;8.45;;;;;;;;;;5033673;28;20118;-70
2021/07/17 03:58:52;;;;;;;27.92;8.95;;;;;;;;;;5038430;28;20111;-71
2021/07/17 04:01:18;;;;;;;31.95;9.40;;;;;;;;;;5041965;28;20095;-71
2021/07/17 04:03:47;;;;;;;22.52;8.63;;;;;;;;;;5032484;28;20045;-70
2021/07/17 04:06:13;;;;;;;28.73;8.75;;;;;;;;;;5020054;28;20045;-70
2021/07/17 04:08:40;;;;;;;26.55;8.68;;;;;;;;;;5028769;28;20102;-70
2021/07/17 04:11:06;;;;;;;26.63;8.57;;;;;;;;;;5036202;28;20079;-70
2021/07/17 04:13:32;;;;;;;25.15;7.97;;;;;;;;;;5024582;28;20049;-70
2021/07/17 04:16:00;;;;;;;21.35;7.70;;;;;;;;;;5033926;28;20141;-70
2021/07/17 04:18:26;;;;;;;22.55;7.53;;;;;;;;;;5032963;28;20478;-70
2021/07/17 04:20:53;;;;;;;17.27;7.50;;;;;;;;;;5044156;28;20465;-70
2021/07/17 04:23:19;;;;;;;34.22;8.85;;;;;;;;;;5029848;28;20061;-70
2021/07/17 04:25:45;;;;;;;26.05;8.52;;;;;;;;;;5035043;28;20064;-70
2021/07/17 04:28:11;;;;;;;35.80;8.27;;;;;;;;;;5028799;28;20113;-70
2021/07/17 04:30:37;;;;;;;22.00;7.68;;;;;;;;;;5034549;28;20112;-70
2021/07/17 04:33:03;;;;;;;27.50;8.40;;;;;;;;;;5029787;28;20112;-70
2021/07/17 04:35:29;;;;;;;24.38;8.07;;;;;;;;;;5038805;28;20029;-70
2021/07/17 04:37:55;;;;;;;32.55;8.15;;;;;;;;;;5017134;28;20053;-70
2021/07/17 04:40:22;;;;;;;29.38;8.65;;;;;;;;;;5030153;28;20037;-70
2021/07/17 04:42:48;;;;;;;28.33;7.72;;;;;;;;;;5016868;28;20053;-70
2021/07/17 04:45:14;;;;;;;27.55;8.13;;;;;;;;;;5031590;28;20039;-70
2021/07/17 04:47:40;;;;;;;30.55;8.13;;;;;;;;;;5034732;28;20037;-70
2021/07/17 04:50:07;;;;;;;33.50;8.35;;;;;;;;;;5027779;28;20057;-70
2021/07/17 04:52:33;;;;;;;32.60;8.35;;;;;;;;;;5034631;28;20041;-70
2021/07/17 04:54:59;;;;;;;25.00;8.18;;;;;;;;;;5030309;28;20538;-70
2021/07/17 04:57:25;;;;;;;30.52;8.27;;;;;;;;;;5037295;28;20060;-70
2021/07/17 04:59:51;;;;;;;29.80;7.78;;;;;;;;;;5029325;28;20040;-70
2021/07/17 05:02:17;;;;;;;35.35;8.85;;;;;;;;;;5035804;28;20042;-70
2021/07/17 05:04:44;;;;;;;31.20;7.88;;;;;;;;;;5030705;28;20432;-70
2021/07/17 05:07:10;;;;;;;24.55;7.78;;;;;;;;;;5033813;28;20398;-70
2021/07/17 05:09:36;;;;;;;30.73;8.15;;;;;;;;;;5016754;28;20049;-70
2021/07/17 05:12:03;;;;;;;27.70;7.60;;;;;;;;;;5032589;28;20518;-70
2021/07/17 05:14:29;;;;;;;28.60;7.63;;;;;;;;;;5031065;28;20476;-70
2021/07/17 05:16:55;;;;;;;31.17;6.88;;;;;;;;;;5032072;28;20037;-70
2021/07/17 05:19:21;;;;;;;33.15;8.32;;;;;;;;;;5036374;28;20038;-71
2021/07/17 05:21:47;;;;;;;24.83;7.15;;;;;;;;;;5027159;28;20045;-71
2021/07/17 05:24:13;;;;;;;25.77;7.40;;;;;;;;;;5035566;28;20065;-71
2021/07/17 05:26:39;;;;;;;27.65;7.32;;;;;;;;;;5029176;28;20120;-71
2021/07/17 05:29:06;;;;;;;26.90;6.47;;;;;;;;;;5035035;28;20029;-71
2021/07/17 05:31:32;;;;;;;27.17;7.00;;;;;;;;;;5035783;28;20044;-71
2021/07/17 05:33:58;;;;;;;22.50;6.40;;;;;;;;;;5032344;28;20037;-71
2021/07/17 05:36:24;;;;;;;32.67;7.00;;;;;;;;;;5017448;28;20033;-71
2021/07/17 05:38:50;;;;;;;28.13;7.15;;;;;;;;;;5032763;28;20108;-71
2021/07/17 05:41:16;;;;;;;24.20;6.45;;;;;;;;;;5028828;28;20033;-71
2021/07/17 05:43:42;;;;;;;23.65;6.25;;;;;;;;;;5032800;28;20049;-71
2021/07/17 05:46:08;;;;;;;22.20;6.40;;;;;;;;;;5010848;28;20052;-71
2021/07/17 05:48:35;;;;;;;25.02;6.43;;;;;;;;;;5032811;28;20037;-71
2021/07/17 05:51:01;;;;;;;25.92;6.35;;;;;;;;;;5031676;28;20745;-71
2021/07/17 05:53:27;;;;;;;24.38;5.57;;;;;;;;;;5033176;28;20033;-71
2021/07/17 05:55:53;;;;;;;21.38;5.75;;;;;;;;;;5032863;28;20127;-70
2021/07/17 05:58:21;;;;;;;22.95;5.47;;;;;;;;;;5031225;28;20095;-70
2021/07/17 06:00:47;;;;;;;17.98;5.80;;;;;;;;;;5022377;28;20500;-70
2021/07/17 06:03:13;;;;;;;22.83;5.95;;;;;;;;;;5030181;28;20123;-70
2021/07/17 06:05:39;;;;;;;18.40;5.38;;;;;;;;;;5033064;28;20041;-71
2021/07/17 06:08:05;;;;;;;18.10;4.88;;;;;;;;;;5029020;28;20033;-71
2021/07/17 06:10:32;;;;;;;16.73;5.10;;;;;;;;;;5034622;28;20123;-71
2021/07/17 06:12:59;;;;;;;17.85;5.38;;;;;;;;;;5026264;28;20058;-71
2021/07/17 06:15:25;;;;;;;22.45;5.47;;;;;;;;;;5037113;28;20388;-72
2021/07/17 06:17:53;;;;;;;18.38;4.90;;;;;;;;;;5028237;28;20596;-71
2021/07/17 06:20:20;;;;;;;15.65;4.47;;;;;;;;;;5039140;28;20111;-71
2021/07/17 06:22:46;;;;;;;17.63;5.07;;;;;;;;;;5023646;28;20489;-71
2021/07/17 06:25:12;;;;;;;13.93;4.60;;;;;;;;;;5044254;28;20493;-72
2021/07/17 06:27:39;;;;;;;15.40;4.43;;;;;;;;;;5027071;28;20688;-72
2021/07/17 06:30:08;;;;;;;17.13;6.05;;;;;;;;;;5035147;28;20440;-72
2021/07/17 06:32:34;;;;;;;24.90;10.45;;;;;;;;;;5018090;28;20037;-71
2021/07/17 06:35:00;;;;;;;16.40;3.88;;;;;;;;;;5033977;28;20045;-71
2021/07/17 06:37:26;;;;;;;16.27;3.60;;;;;;;;;;5036577;28;20075;-71
2021/07/17 06:39:53;;;;;;;14.43;3.20;;;;;;;;;;5031637;28;20038;-72
2021/07/17 06:42:19;;;;;;;12.82;3.58;;;;;;;;;;5021759;28;20073;-72
2021/07/17 06:44:45;;;;;;;15.27;3.65;;;;;;;;;;5036235;28;20041;-72
2021/07/17 06:47:11;;;;;;;15.05;3.58;;;;;;;;;;5040115;28;20546;-72
2021/07/17 06:49:37;;;;;;;13.48;3.42;;;;;;;;;;5041299;28;20061;-72
2021/07/17 06:52:04;;;;;;;12.25;3.08;;;;;;;;;;5026882;28;20072;-72
2021/07/17 06:54:30;;;;;;;14.95;3.55;;;;;;;;;;5025293;28;20080;-72
2021/07/17 06:56:56;;;;;;;12.98;2.72;;;;;;;;;;5045926;28;20041;-72
2021/07/17 06:59:22;;;;;;;12.68;2.83;;;;;;;;;;5023866;28;20486;-72
2021/07/17 07:01:48;;;;;;;11.90;2.97;;;;;;;;;;5043716;28;20063;-72
2021/07/17 07:04:14;;;;;;;9.52;2.65;;;;;;;;;;5038472;28;20484;-72
2021/07/17 07:06:41;;;;;;;10.77;2.08;;;;;;;;;;5047367;28;20435;-72
2021/07/17 07:09:07;;;;;;;8.10;2.63;;;;;;;;;;5038548;28;20037;-72
2021/07/17 07:11:33;;;;;;;7.00;2.35;;;;;;;;;;5046331;28;20667;-72
2021/07/17 07:14:00;;;;;;;11.00;2.30;;;;;;;;;;5047361;28;20057;-71
2021/07/17 07:16:26;;;;;;;12.50;2.63;;;;;;;;;;5041855;28;20366;-71
2021/07/17 07:18:52;;;;;;;9.43;2.58;;;;;;;;;;5041963;28;20040;-71
2021/07/17 07:21:19;;;;;;;10.07;2.50;;;;;;;;;;5038529;28;20029;-72
2021/07/17 07:23:45;;;;;;;15.80;2.75;;;;;;;;;;5049460;28;20065;-72
2021/07/17 07:26:11;;;;;;;8.35;2.15;;;;;;;;;;5037302;28;20459;-73
2021/07/17 07:28:37;;;;;;;6.55;1.90;;;;;;;;;;5045432;28;20040;-72
2021/07/17 07:31:03;;;;;;;8.80;1.90;;;;;;;;;;5044781;28;20037;-72
2021/07/17 07:33:29;;;;;;;9.15;2.40;;;;;;;;;;5045551;28;20481;-73
2021/07/17 07:35:55;;;;;;;7.88;1.90;;;;;;;;;;5040618;28;20431;-72
2021/07/17 07:38:22;;;;;;;8.45;2.25;;;;;;;;;;5048384;28;20080;-72
2021/07/17 07:40:48;;;;;;;8.38;1.90;;;;;;;;;;5043006;28;20448;-72
2021/07/17 07:43:14;;;;;;;6.38;1.50;;;;;;;;;;5043306;28;20044;-72
2021/07/17 07:45:40;;;;;;;8.40;1.70;;;;;;;;;;5040228;28;20514;-73
2021/07/17 07:48:06;;;;;;;7.13;1.80;;;;;;;;;;5044691;28;20049;-72
2021/07/17 07:50:32;;;;;;;6.43;1.33;;;;;;;;;;5036715;28;20071;-72
2021/07/17 07:52:59;;;;;;;8.00;1.90;;;;;;;;;;5045809;28;20044;-72
2021/07/17 07:55:25;;;;;;;6.53;2.00;;;;;;;;;;5047518;28;20474;-74
2021/07/17 07:57:51;;;;;;;6.68;1.52;;;;;;;;;;5041282;28;20036;-72
2021/07/17 08:00:18;;;;;;;6.70;1.20;;;;;;;;;;5027404;28;20049;-72
2021/07/17 08:02:44;;;;;;;8.13;1.85;;;;;;;;;;5040424;28;20099;-72
2021/07/17 08:05:10;;;;;;;10.38;2.13;;;;;;;;;;5045950;28;20049;-72
2021/07/17 08:07:36;;;;;;;4.75;1.85;;;;;;;;;;5019742;28;20053;-72
2021/07/17 08:10:03;;;;;;;8.15;1.80;;;;;;;;;;5048337;28;20091;-73
2021/07/17 08:12:30;;;;;;;6.20;1.63;;;;;;;;;;5020771;28;20070;-71
2021/07/17 08:14:57;;;;;;;7.15;1.77;;;;;;;;;;5042450;28;20482;-72
2021/07/17 08:17:23;;;;;;;8.70;2.20;;;;;;;;;;5038337;28;20103;-72
2021/07/17 08:19:49;;;;;;;8.02;1.60;;;;;;;;;;5046889;28;20431;-72
2021/07/17 08:22:15;;;;;;;7.93;1.90;;;;;;;;;;5037556;28;20059;-72
2021/07/17 08:24:41;;;;;;;6.90;1.30;;;;;;;;;;5042980;28;20037;-72
2021/07/17 08:27:07;;;;;;;6.78;1.65;;;;;;;;;;5039182;28;20124;-73
2021/07/17 08:29:34;;;;;;;9.20;1.77;;;;;;;;;;5043590;28;20033;-73
2021/07/17 08:32:00;;;;;;;8.57;1.70;;;;;;;;;;5043098;28;20464;-73
2021/07/17 08:34:26;;;;;;;6.63;1.90;;;;;;;;;;5020832;28;20136;-73
2021/07/17 08:36:52;;;;;;;5.68;1.45;;;;;;;;;;5043304;28;20468;-72
2021/07/17 08:39:18;;;;;;;5.55;1.33;;;;;;;;;;5022561;28;20409;-73
2021/07/17 08:41:48;;;;;;;6.15;1.30;;;;;;;;;;5042896;28;20047;-72
2021/07/17 08:44:15;;;;;;;5.72;1.17;;;;;;;;;;5043363;28;20037;-74
2021/07/17 08:46:41;;;;;;;5.85;1.50;;;;;;;;;;5044200;28;20055;-73
2021/07/17 08:49:07;;;;;;;5.47;1.30;;;;;;;;;;5036438;28;20048;-72
2021/07/17 08:51:34;;;;;;;6.60;1.85;;;;;;;;;;5045716;28;20175;-73
2021/07/17 08:54:00;;;;;;;5.68;1.27;;;;;;;;;;5030615;28;20421;-74
2021/07/17 08:56:26;;;;;;;8.85;1.60;;;;;;;;;;5037693;28;20040;-72
2021/07/17 08:58:52;;;;;;;6.70;1.40;;;;;;;;;;5032886;28;20029;-73
2021/07/17 09:01:19;;;;;;;5.28;0.95;;;;;;;;;;5039472;28;20110;-73
2021/07/17 09:03:46;;;;;;;7.30;1.13;;;;;;;;;;5030061;28;20045;-73
2021/07/17 09:06:12;;;;;;;3.72;1.30;;;;;;;;;;5037262;28;20501;-73
2021/07/17 09:08:39;;;;;;;6.60;1.10;;;;;;;;;;5030942;28;20400;-73
2021/07/17 09:11:05;;;;;;;5.20;1.50;;;;;;;;;;5039136;28;20410;-73
2021/07/17 09:13:35;;;;;;;4.78;1.10;;;;;;;;;;5035863;28;20045;-73
2021/07/17 09:16:09;;;;;;;4.63;1.20;;;;;;;;;;5026974;28;20048;-73
2021/07/17 09:18:44;;;;;;;5.32;1.10;;;;;;;;;;5042305;28;20044;-73
2021/07/17 09:21:17;;;;;;;6.55;1.10;;;;;;;;;;5031757;28;20116;-72
2021/07/17 09:23:54;;;;;;;5.07;1.20;;;;;;;;;;5034991;28;20117;-73
2021/07/17 09:26:21;;;;;;;6.28;1.13;;;;;;;;;;5018089;28;20053;-74
2021/07/17 09:29:01;;;;;;;4.82;1.20;;;;;;;;;;5033984;28;20041;-74
2021/07/17 09:31:29;;;;;;;5.40;1.17;;;;;;;;;;5029471;28;20397;-72
2021/07/17 09:34:02;;;;;;;3.17;0.63;;;;;;;;;;5035673;28;20044;-74
2021/07/17 09:36:28;;;;;;;6.25;1.00;;;;;;;;;;5029354;28;20384;-74
2021/07/17 09:38:55;;;;;;;5.55;1.20;;;;;;;;;;5035009;28;20107;-74
2021/07/17 09:41:21;;;;;;;6.50;1.08;;;;;;;;;;5029388;28;20516;-74
2021/07/17 09:43:59;;;;;;;3.40;0.70;;;;;;;;;;5036081;28;20036;-74
2021/07/17 09:46:26;;;;;;;4.75;0.90;;;;;;;;;;5016576;28;20038;-73
2021/07/17 09:48:57;;;;;;;5.80;1.60;;;;;;;;;;5034403;28;20060;-73
2021/07/17 09:51:25;;;;;;;4.85;1.08;;;;;;;;;;5032232;28;20111;-73
2021/07/17 09:53:52;;;;;;;4.22;1.20;;;;;;;;;;5030667;28;20095;-74
2021/07/17 09:56:18;;;;;;;3.85;1.08;;;;;;;;;;5031101;28;20460;-74
2021/07/17 09:58:45;;;;;;;6.95;1.13;;;;;;;;;;5017302;28;20049;-73
2021/07/17 10:01:31;;;;;;;5.85;1.10;;;;;;;;;;5027086;28;20034;-72
2021/07/17 10:03:59;;;;;;;4.20;1.00;;;;;;;;;;5032784;28;20055;-73
2021/07/17 10:06:26;;;;;;;5.90;1.30;;;;;;;;;;5028764;28;20285;-74
2021/07/17 10:08:53;;;;;;;3.53;0.70;;;;;;;;;;5033757;28;20037;-74
2021/07/17 10:11:22;;;;;;;4.45;1.00;;;;;;;;;;5029592;28;20295;-73
2021/07/17 10:13:49;;;;;;;2.65;0.75;;;;;;;;;;5033487;28;20096;-73
2021/07/17 10:16:19;;;;;;;4.70;0.90;;;;;;;;;;5027706;28;20509;-73
2021/07/17 10:18:46;;;;;;;5.25;1.00;;;;;;;;;;5022767;28;20111;-73
2021/07/17 10:21:12;;;;;;;5.38;1.17;;;;;;;;;;5032140;28;20037;-73
2021/07/17 10:23:39;;;;;;;6.80;1.13;;;;;;;;;;5027294;28;20033;-73
2021/07/17 10:26:05;;;;;;;4.07;1.08;;;;;;;;;;5033027;28;20042;-74
2021/07/17 10:28:32;;;;;;;5.60;1.00;;;;;;;;;;5033916;28;20103;-73
2021/07/17 10:31:01;;;;;;;5.05;0.90;;;;;;;;;;5036374;28;20029;-73
2021/07/17 10:33:29;;;;;;;4.65;0.98;;;;;;;;;;5027805;28;20089;-72
2021/07/17 10:35:57;;;;;;;3.67;0.85;;;;;;;;;;5043728;28;20071;-72
2021/07/17 10:38:23;;;;;;;5.22;0.80;;;;;;;;;;5032140;28;20559;-73
2021/07/17 10:40:50;;;;;;;4.75;1.20;;;;;;;;;;5022982;28;20045;-75
2021/07/17 10:43:17;;;;;;;3.53;0.70;;;;;;;;;;5026411;28;20420;-73
2021/07/17 10:45:44;;;;;;;2.92;0.90;;;;;;;;;;5041384;28;20045;-73
2021/07/17 10:48:24;;;;;;;4.55;0.80;;;;;;;;;;5030002;28;20038;-74
2021/07/17 10:50:50;;;;;;;3.60;0.80;;;;;;;;;;5032311;28;20107;-73
2021/07/17 10:53:39;;;;;;;4.50;0.88;;;;;;;;;;5025319;28;20040;-73
2021/07/17 10:56:24;;;;;;;2.92;0.63;;;;;;;;;;5033282;28;20069;-73
2021/07/17 10:58:50;;;;;;;2.90;1.00;;;;;;;;;;5027979;28;20128;-73
2021/07/17 11:01:16;;;;;;;3.95;0.68;;;;;;;;;;5035055;28;20052;-73
2021/07/17 11:03:43;;;;;;;2.92;0.60;;;;;;;;;;5032195;28;20036;-74
2021/07/17 11:06:24;;;;;;;4.43;0.70;;;;;;;;;;5033802;28;20057;-74
2021/07/17 11:08:50;;;;;;;4.05;0.90;;;;;;;;;;5026525;28;20045;-74
2021/07/17 11:11:30;;;;;;;1.95;0.73;;;;;;;;;;5039056;28;20033;-74
2021/07/17 11:14:17;;;;;;;3.63;0.80;;;;;;;;;;5027637;28;20457;-73
2021/07/17 11:16:44;;;;;;;3.30;0.60;;;;;;;;;;5022853;28;20069;-73
2021/07/17 11:19:16;;;;;;;3.25;0.60;;;;;;;;;;5027962;28;20104;-72
2021/07/17 11:21:42;;;;;;;3.88;0.68;;;;;;;;;;5031490;28;20107;-73
2021/07/17 11:24:09;;;;;;;2.83;0.90;;;;;;;;;;5029397;28;20045;-72
2021/07/17 11:26:36;;;;;;;3.00;0.80;;;;;;;;;;5032449;28;20130;-71
2021/07/17 11:29:04;;;;;;;2.05;0.52;;;;;;;;;;5029281;28;20038;-71
2021/07/17 11:31:31;;;;;;;2.15;0.65;;;;;;;;;;5034415;28;20282;-70
2021/07/17 11:34:14;;;;;;;3.10;0.82;;;;;;;;;;5033808;28;20107;-72
2021/07/17 11:36:41;;;;;;;2.03;0.57;;;;;;;;;;5041063;28;20102;-70
2021/07/17 11:39:09;;;;;;;2.10;0.60;;;;;;;;;;5041774;28;20120;-69
2021/07/17 11:41:36;;;;;;;3.45;0.60;;;;;;;;;;5029262;28;20096;-69
2021/07/17 11:44:02;;;;;;;3.35;0.70;;;;;;;;;;5037774;28;20060;-68
2021/07/17 11:46:28;;;;;;;5.03;0.60;;;;;;;;;;5035144;28;20049;-68
2021/07/17 11:49:01;;;;;;;2.83;0.85;;;;;;;;;;5040607;28;20452;-69
2021/07/17 11:51:27;;;;;;;2.85;0.75;;;;;;;;;;5015647;28;20049;-69
2021/07/17 11:53:58;;;;;;;1.98;0.30;;;;;;;;;;5034954;28;20037;-69
2021/07/17 11:56:24;;;;;;;2.03;0.40;;;;;;;;;;5031477;28;20080;-69
2021/07/17 11:58:50;;;;;;;2.20;0.40;;;;;;;;;;5033933;28;20076;-66
2021/07/17 12:01:18;;;;;;;2.50;0.73;;;;;;;;;;5032037;28;20048;-67
2021/07/17 12:03:56;;;;;;;3.65;0.52;;;;;;;;;;5035496;28;20041;-72
2021/07/17 12:06:27;;;;;;;2.20;0.40;;;;;;;;;;5036755;28;20143;-71
2021/07/17 12:08:53;;;;;;;2.95;0.40;;;;;;;;;;5022888;28;20057;-72
2021/07/17 12:11:21;;;;;;;1.95;0.57;;;;;;;;;;5030996;28;20067;-72
2021/07/17 12:13:47;;;;;;;3.78;0.70;;;;;;;;;;5035149;28;20493;-72
2021/07/17 12:16:20;;;;;;;2.67;0.50;;;;;;;;;;5014459;28;20049;-68
2021/07/17 12:18:53;;;;;;;1.88;0.50;;;;;;;;;;5033211;28;20054;-66
2021/07/17 12:21:19;;;;;;;1.80;0.70;;;;;;;;;;5030443;28;20119;-67
2021/07/17 12:23:56;;;;;;;3.00;0.43;;;;;;;;;;5042556;28;20064;-67
2021/07/17 12:26:22;;;;;;;2.53;0.60;;;;;;;;;;5030860;28;20150;-69
2021/07/17 12:28:48;;;;;;;2.53;0.73;;;;;;;;;;5039602;28;20045;-69
2021/07/17 12:31:15;;;;;;;3.15;0.55;;;;;;;;;;5040417;28;20474;-69
2021/07/17 12:33:42;;;;;;;2.90;0.65;;;;;;;;;;5032051;28;20052;-69
2021/07/17 12:36:16;;;;;;;1.63;0.50;;;;;;;;;;5040425;28;20052;-70
2021/07/17 12:38:44;;;;;;;3.05;0.60;;;;;;;;;;5030594;28;20030;-70
2021/07/17 12:41:19;;;;;;;3.55;0.70;;;;;;;;;;5035638;28;20037;-70
2021/07/17 12:43:46;;;;;;;1.85;0.38;;;;;;;;;;5035359;28;20037;-72
2021/07/17 12:46:15;;;;;;;2.40;0.57;;;;;;;;;;5034849;28;20374;-71
2021/07/17 12:48:53;;;;;;;2.28;0.50;;;;;;;;;;5017486;28;20127;-71
2021/07/17 12:51:21;;;;;;;1.45;0.40;;;;;;;;;;5033678;28;20057;-71
2021/07/17 12:53:49;;;;;;;2.42;0.60;;;;;;;;;;5028137;28;20071;-71
2021/07/17 12:56:17;;;;;;;3.30;0.93;;;;;;;;;;5037791;28;20037;-71
2021/07/17 12:58:43;;;;;;;2.47;0.52;;;;;;;;;;5028491;28;20025;-70
2021/07/17 13:01:11;;;;;;;3.55;0.50;;;;;;;;;;5035488;28;20044;-71
2021/07/17 13:03:38;;;;;;;1.63;0.52;;;;;;;;;;5030564;28;20041;-71
2021/07/17 13:06:04;;;;;;;3.67;0.73;;;;;;;;;;5037845;28;20037;-72
2021/07/17 13:08:32;;;;;;;3.45;0.50;;;;;;;;;;5028516;28;20043;-72
2021/07/17 13:10:59;;;;;;;1.95;0.70;;;;;;;;;;5035611;28;20060;-71
2021/07/17 13:13:26;;;;;;;1.95;0.60;;;;;;;;;;5027372;28;20544;-72
2021/07/17 13:15:53;;;;;;;4.22;0.65;;;;;;;;;;5036894;28;20543;-72
2021/07/17 13:18:21;;;;;;;4.68;0.70;;;;;;;;;;5028959;28;20033;-71
2021/07/17 13:21:06;;;;;;;1.80;0.50;;;;;;;;;;5040102;28;20042;-71
2021/07/17 13:23:48;;;;;;;1.92;0.50;;;;;;;;;;5027955;28;20107;-71
2021/07/17 13:26:22;;;;;;;2.25;0.40;;;;;;;;;;5035285;28;20598;-71
2021/07/17 13:28:48;;;;;;;3.13;0.63;;;;;;;;;;5027670;28;20040;-71
2021/07/17 13:31:18;;;;;;;2.95;0.50;;;;;;;;;;5038177;28;20548;-71
2021/07/17 13:33:44;;;;;;;2.22;0.47;;;;;;;;;;5031328;28;20524;-72
2021/07/17 13:36:11;;;;;;;2.17;0.50;;;;;;;;;;5033133;28;20547;-71
2021/07/17 13:38:37;;;;;;;2.53;0.57;;;;;;;;;;5043038;28;20033;-71
2021/07/17 13:41:10;;;;;;;2.10;0.32;;;;;;;;;;5027628;28;20485;-71
2021/07/17 13:43:39;;;;;;;;;;;;;;;;;;5034080;28;20512;-71
2021/07/17 13:46:05;;;;;;;1.85;0.30;;;;;;;;;;5018908;28;20266;-71
2021/07/17 13:48:31;;;;;;;3.80;0.40;;;;;;;;;;5033419;28;20039;-71
2021/07/17 13:51:05;;;;;;;3.13;0.40;;;;;;;;;;5026992;28;20349;-70
2021/07/17 13:53:31;;;;;;;3.08;0.52;;;;;;;;;;5032410;28;20037;-71
2021/07/17 13:56:04;;;;;;;1.83;0.50;;;;;;;;;;5031937;28;20405;-70
2021/07/17 13:58:30;;;;;;;;;;;;;;;;;;5034243;28;20068;-70
2021/07/17 14:01:15;;;;;;;1.10;0.32;;;;;;;;;;5032124;28;19921;-71
2021/07/17 14:03:42;;;;;;;2.88;0.60;;;;;;;;;;5035958;28;20047;-71
2021/07/17 14:06:10;;;;;;;2.65;0.38;;;;;;;;;;5035854;28;20029;-71
2021/07/17 14:08:37;;;;;;;2.60;0.50;;;;;;;;;;5033629;28;20136;-70
2021/07/17 14:11:08;;;;;;;3.90;0.60;;;;;;;;;;5032135;28;20645;-70
2021/07/17 14:13:35;;;;;;;2.38;0.40;;;;;;;;;;5033955;28;20195;-70
2021/07/17 14:16:02;;;;;;;2.50;0.45;;;;;;;;;;5036215;28;20162;-70
2021/07/17 14:18:28;;;;;;;2.58;0.55;;;;;;;;;;5035122;28;20040;-70
2021/07/17 14:20:56;;;;;;;0.73;0.40;;;;;;;;;;5024827;28;20037;-70
2021/07/17 14:23:22;;;;;;;2.20;0.40;;;;;;;;;;5038022;28;20034;-71
2021/07/17 14:25:48;;;;;;;1.83;0.40;;;;;;;;;;5036732;28;20095;-71
2021/07/17 14:28:15;;;;;;;3.30;0.50;;;;;;;;;;5034003;28;20044;-71
2021/07/17 14:30:41;;;;;;;3.15;0.70;;;;;;;;;;5031041;28;20076;-70
2021/07/17 14:33:08;;;;;;;2.22;1.02;;;;;;;;;;5033270;28;20053;-69
2021/07/17 14:35:34;;;;;;;1.27;0.40;;;;;;;;;;5033648;28;20486;-71
2021/07/17 14:38:01;;;;;;;2.53;0.60;;;;;;;;;;5026041;28;20210;-70